Time;durP1;ratioP1;P1;durP2;ratioP2;P2;SDS_P1;SDS_P2;PMS_P1;PMS_P2;Temp;Humidity;BMP_temperature;BMP_pressure;BME280_temperature;BME280_humidity;BME280_pressure;Samples;Min_cycle;Max_cycle;Signal;HPM_P1;HPM_P2
2022/03/15 00:01:33;;;;;;;6.87;5.40;;;4.60;99.90;;;;;;4992470;28;20237;-45
2022/03/15 00:04:00;;;;;;;6.93;5.63;;;4.50;99.90;;;;;;5004463;28;20544;-45
2022/03/15 00:06:27;;;;;;;7.00;5.17;;;4.50;99.90;;;;;;5001550;28;20219;-45
2022/03/15 00:08:54;;;;;;;6.70;5.27;;;4.40;99.90;;;;;;4988931;28;20553;-45
2022/03/15 00:11:21;;;;;;;7.93;4.87;;;4.30;99.90;;;;;;4995308;28;20248;-45
2022/03/15 00:13:48;;;;;;;4.40;4.00;;;4.20;99.90;;;;;;4986918;28;20396;-46
2022/03/15 00:16:15;;;;;;;4.97;4.47;;;4.20;99.90;;;;;;4994728;28;20286;-44
2022/03/15 00:18:43;;;;;;;4.10;3.70;;;4.20;99.90;;;;;;5014941;28;20205;-45
2022/03/15 00:21:12;;;;;;;6.87;4.00;;;4.20;99.90;;;;;;5001143;28;20225;-46
2022/03/15 00:23:39;;;;;;;4.93;4.23;;;4.20;99.90;;;;;;5015333;28;20422;-46
2022/03/15 00:26:06;;;;;;;4.73;3.93;;;4.10;99.90;;;;;;4983261;28;20214;-45
2022/03/15 00:28:34;;;;;;;4.03;3.63;;;4.10;99.90;;;;;;5004201;28;20218;-46
2022/03/15 00:31:01;;;;;;;4.30;3.90;;;4.00;99.90;;;;;;4993521;28;20526;-46
2022/03/15 00:33:29;;;;;;;4.83;4.20;;;4.10;99.90;;;;;;4990161;28;20628;-46
2022/03/15 00:35:59;;;;;;;6.53;4.43;;;4.10;99.90;;;;;;5004385;28;20633;-45
2022/03/15 00:38:26;;;;;;;5.67;4.70;;;4.10;99.90;;;;;;5015926;28;20209;-45
2022/03/15 00:40:53;;;;;;;6.70;4.87;;;4.20;99.90;;;;;;4995468;28;20202;-46
2022/03/15 00:43:20;;;;;;;6.00;5.30;;;4.10;99.90;;;;;;4988268;28;20596;-45
2022/03/15 00:45:46;;;;;;;6.07;5.57;;;4.10;99.90;;;;;;4997510;28;20283;-47
2022/03/15 00:48:14;;;;;;;7.17;4.60;;;3.90;99.90;;;;;;5001234;28;20210;-46
2022/03/15 00:50:41;;;;;;;4.97;4.03;;;4.00;99.90;;;;;;5000091;28;20215;-47
2022/03/15 00:53:10;;;;;;;5.30;4.73;;;3.90;99.90;;;;;;5002499;28;20228;-46
2022/03/15 00:55:38;;;;;;;6.67;4.90;;;3.80;99.90;;;;;;4994333;28;20520;-46
2022/03/15 00:58:05;;;;;;;5.47;4.20;;;3.90;99.90;;;;;;4998264;28;20827;-46
2022/03/15 01:00:33;;;;;;;4.90;4.40;;;3.90;99.90;;;;;;4997350;28;20216;-45
2022/03/15 01:02:59;;;;;;;5.20;4.10;;;3.80;99.90;;;;;;5001488;28;21035;-45
2022/03/15 01:05:26;;;;;;;7.27;4.60;;;3.90;99.90;;;;;;5000284;28;20289;-45
2022/03/15 01:07:53;;;;;;;5.23;4.00;;;3.90;99.90;;;;;;5007731;28;20277;-46
2022/03/15 01:10:22;;;;;;;4.23;3.80;;;3.90;99.90;;;;;;5005087;28;20216;-45
2022/03/15 01:12:49;;;;;;;5.50;4.17;;;3.80;99.90;;;;;;5000803;28;21029;-46
2022/03/15 01:15:16;;;;;;;4.53;3.70;;;3.90;99.90;;;;;;5010478;28;20309;-46
2022/03/15 01:17:43;;;;;;;9.13;4.60;;;3.90;99.90;;;;;;5005421;28;20211;-47
2022/03/15 01:20:11;;;;;;;6.03;4.90;;;4.00;99.90;;;;;;5005808;28;20284;-45
2022/03/15 01:22:39;;;;;;;5.07;4.30;;;4.00;99.90;;;;;;4998682;28;20345;-47
2022/03/15 01:25:06;;;;;;;5.47;4.13;;;4.10;99.90;;;;;;5012191;28;20343;-45
2022/03/15 01:27:36;;;;;;;6.33;4.70;;;4.00;99.90;;;;;;5012722;28;20228;-46
2022/03/15 01:30:03;;;;;;;5.23;4.27;;;3.90;99.90;;;;;;4985365;28;21012;-46
2022/03/15 01:32:29;;;;;;;8.83;4.50;;;3.90;99.90;;;;;;5007907;28;20350;-47
2022/03/15 01:34:56;;;;;;;13.20;4.63;;;3.90;99.90;;;;;;5004667;28;20544;-45
2022/03/15 01:37:23;;;;;;;12.80;4.90;;;3.90;99.90;;;;;;5005899;28;20318;-46
2022/03/15 01:39:50;;;;;;;5.70;4.23;;;3.90;99.90;;;;;;5006538;28;21177;-46
2022/03/15 01:42:17;;;;;;;33.77;4.33;;;4.00;99.90;;;;;;5016324;28;20467;-45
2022/03/15 01:44:47;;;;;;;8.30;3.87;;;3.80;99.90;;;;;;5001278;28;20280;-47
2022/03/15 01:47:14;;;;;;;7.27;4.17;;;3.80;99.90;;;;;;5004199;28;20206;-44
2022/03/15 01:49:42;;;;;;;5.03;3.67;;;3.80;99.90;;;;;;5007233;28;20257;-45
2022/03/15 01:52:12;;;;;;;4.17;3.60;;;3.70;99.90;;;;;;5014201;28;20666;-44
2022/03/15 01:54:41;;;;;;;4.60;4.10;;;3.60;99.90;;;;;;5003665;28;20251;-44
2022/03/15 01:57:08;;;;;;;4.63;3.87;;;3.60;99.90;;;;;;4990439;28;20231;-44
2022/03/15 01:59:36;;;;;;;4.40;3.60;;;3.50;99.90;;;;;;5014892;28;20206;-45
2022/03/15 02:02:05;;;;;;;4.57;3.70;;;3.40;99.90;;;;;;4985412;28;20580;-44
2022/03/15 02:04:32;;;;;;;4.83;3.63;;;3.40;99.90;;;;;;5006329;28;20209;-46
2022/03/15 02:07:04;;;;;;;6.00;3.83;;;3.30;99.90;;;;;;4985415;28;20216;-44
2022/03/15 02:09:31;;;;;;;3.97;3.20;;;3.40;99.90;;;;;;5003687;28;20288;-45
2022/03/15 02:11:58;;;;;;;4.00;3.40;;;3.30;99.90;;;;;;4992252;28;20209;-48
2022/03/15 02:14:25;;;;;;;8.40;3.57;;;3.30;99.90;;;;;;5015107;28;20694;-46
2022/03/15 02:16:53;;;;;;;4.73;3.33;;;3.40;99.90;;;;;;4988856;28;20217;-49
2022/03/15 02:19:22;;;;;;;6.07;3.97;;;3.50;99.90;;;;;;5004480;28;20544;-47
2022/03/15 02:21:50;;;;;;;4.57;3.77;;;3.50;99.90;;;;;;5008410;28;20216;-44
2022/03/15 02:24:18;;;;;;;5.37;4.40;;;3.50;99.90;;;;;;5005578;28;22452;-45
2022/03/15 02:26:45;;;;;;;5.17;3.97;;;3.60;99.90;;;;;;4999092;28;20516;-46
2022/03/15 02:29:12;;;;;;;5.30;4.40;;;3.60;99.90;;;;;;5017136;28;20459;-46
2022/03/15 02:31:39;;;;;;;9.07;5.20;;;3.50;99.90;;;;;;5002026;28;20295;-45
2022/03/15 02:34:06;;;;;;;7.47;5.03;;;3.50;99.90;;;;;;4989611;28;20234;-45
2022/03/15 02:36:33;;;;;;;9.67;5.20;;;3.40;99.90;;;;;;5007842;28;20205;-46
2022/03/15 02:39:02;;;;;;;7.70;5.30;;;3.40;99.90;;;;;;5015274;28;20211;-46
2022/03/15 02:41:28;;;;;;;7.67;4.60;;;3.50;99.90;;;;;;4995130;28;20436;-45
2022/03/15 02:43:56;;;;;;;8.03;5.10;;;3.50;99.90;;;;;;5005070;28;20452;-45
2022/03/15 02:46:28;;;;;;;7.73;5.20;;;3.40;99.90;;;;;;4994326;28;20422;-45
2022/03/15 02:48:55;;;;;;;23.00;5.17;;;3.30;99.90;;;;;;5007480;28;20525;-46
2022/03/15 02:51:22;;;;;;;6.23;4.50;;;3.30;99.90;;;;;;5015718;28;20379;-45
2022/03/15 02:53:52;;;;;;;5.10;4.37;;;3.40;99.90;;;;;;4996364;28;20240;-45
2022/03/15 02:56:21;;;;;;;9.30;3.70;;;3.30;99.90;;;;;;4993534;28;20224;-47
2022/03/15 02:58:48;;;;;;;5.47;3.67;;;3.20;99.90;;;;;;5013714;28;20277;-47
2022/03/15 03:01:15;;;;;;;4.83;3.90;;;3.10;99.90;;;;;;4996669;28;20339;-46
2022/03/15 03:03:42;;;;;;;6.37;3.73;;;2.90;99.90;;;;;;4999806;28;20312;-46
2022/03/15 03:06:09;;;;;;;5.90;4.27;;;2.90;99.90;;;;;;4995873;28;20217;-45
2022/03/15 03:08:36;;;;;;;18.47;4.37;;;2.90;99.90;;;;;;5005488;28;20283;-45
2022/03/15 03:11:03;;;;;;;8.43;4.57;;;2.90;99.90;;;;;;5003114;28;20760;-44
2022/03/15 03:13:33;;;;;;;18.67;4.40;;;2.80;99.90;;;;;;4999279;28;20227;-45
2022/03/15 03:16:01;;;;;;;8.93;4.40;;;2.90;99.90;;;;;;5013149;28;20508;-44
2022/03/15 03:18:32;;;;;;;7.20;3.90;;;2.80;99.90;;;;;;4982921;28;20214;-45
2022/03/15 03:21:01;;;;;;;5.97;3.70;;;2.90;99.90;;;;;;5010550;28;20210;-48
2022/03/15 03:23:28;;;;;;;4.53;3.80;;;3.00;99.90;;;;;;5004970;28;20238;-43
2022/03/15 03:25:56;;;;;;;4.87;3.70;;;2.90;99.90;;;;;;4993285;28;20235;-48
2022/03/15 03:28:23;;;;;;;5.70;3.50;;;2.80;99.90;;;;;;5006738;28;20237;-46
2022/03/15 03:30:52;;;;;;;6.03;3.43;;;2.80;99.90;;;;;;5002134;28;20287;-48
2022/03/15 03:33:20;;;;;;;5.23;3.60;;;2.80;99.90;;;;;;4971299;28;20896;-48
2022/03/15 03:35:49;;;;;;;5.03;3.70;;;2.90;99.90;;;;;;5017410;28;20229;-43
2022/03/15 03:38:16;;;;;;;5.33;4.33;;;2.80;99.90;;;;;;4992199;28;20207;-45
2022/03/15 03:40:43;;;;;;;5.87;4.33;;;2.90;99.90;;;;;;5002961;28;20283;-44
2022/03/15 03:43:10;;;;;;;4.73;3.87;;;2.90;99.90;;;;;;5004147;28;20567;-45
2022/03/15 03:45:38;;;;;;;6.17;3.97;;;2.90;99.90;;;;;;4972736;28;20235;-49
2022/03/15 03:48:07;;;;;;;5.30;4.40;;;3.00;99.90;;;;;;4976714;28;20220;-49
2022/03/15 03:50:35;;;;;;;6.60;4.37;;;2.90;99.90;;;;;;4995669;28;20204;-46
2022/03/15 03:53:02;;;;;;;9.77;4.73;;;2.90;99.90;;;;;;5000412;28;20307;-48
2022/03/15 03:55:30;;;;;;;8.47;4.57;;;3.00;99.90;;;;;;5009731;28;20425;-44
2022/03/15 03:57:56;;;;;;;6.70;4.80;;;3.10;99.90;;;;;;4987570;28;20282;-44
2022/03/15 04:00:23;;;;;;;6.13;4.20;;;3.10;99.90;;;;;;5010163;28;20438;-45
2022/03/15 04:02:52;;;;;;;6.30;4.40;;;3.10;99.90;;;;;;5006362;28;20525;-44
2022/03/15 04:05:20;;;;;;;7.23;4.53;;;3.00;99.90;;;;;;4988875;28;20372;-46
2022/03/15 04:07:47;;;;;;;4.97;4.47;;;2.90;99.90;;;;;;5002692;28;20776;-45
2022/03/15 04:10:16;;;;;;;8.40;4.90;;;2.90;99.90;;;;;;5010732;28;20402;-45
2022/03/15 04:12:46;;;;;;;5.30;4.27;;;2.90;99.90;;;;;;5003784;28;20574;-46
2022/03/15 04:15:13;;;;;;;8.13;5.00;;;2.80;99.90;;;;;;4999607;28;20235;-45
2022/03/15 04:17:40;;;;;;;7.17;5.50;;;2.80;99.90;;;;;;5005396;28;20211;-45
2022/03/15 04:20:07;;;;;;;7.33;5.33;;;2.80;99.90;;;;;;4990365;28;20329;-44
2022/03/15 04:22:36;;;;;;;5.20;4.60;;;2.80;99.90;;;;;;5001247;28;20447;-45
2022/03/15 04:25:03;;;;;;;6.03;4.27;;;2.80;99.90;;;;;;5006916;28;20218;-46
2022/03/15 04:27:30;;;;;;;5.23;4.30;;;2.80;99.90;;;;;;4989582;28;20204;-46
2022/03/15 04:29:57;;;;;;;4.13;3.20;;;2.90;99.90;;;;;;5006573;28;20244;-46
2022/03/15 04:32:24;;;;;;;25.13;4.00;;;3.00;99.90;;;;;;4983611;28;20451;-46
2022/03/15 04:34:51;;;;;;;15.23;3.33;;;3.10;99.90;;;;;;4990587;28;20250;-45
2022/03/15 04:37:18;;;;;;;4.07;3.13;;;3.10;99.90;;;;;;5013280;28;20213;-46
2022/03/15 04:39:47;;;;;;;4.03;3.23;;;3.10;99.90;;;;;;4997020;28;20463;-46
2022/03/15 04:42:14;;;;;;;3.37;3.07;;;3.00;99.90;;;;;;5009965;28;20253;-45
2022/03/15 04:44:41;;;;;;;4.30;3.83;;;3.00;99.90;;;;;;5001878;28;20401;-44
2022/03/15 04:47:08;;;;;;;6.87;4.07;;;2.90;99.90;;;;;;5001035;28;20246;-44
2022/03/15 04:49:35;;;;;;;4.03;3.50;;;3.00;99.90;;;;;;4996781;28;20243;-45
2022/03/15 04:52:03;;;;;;;4.50;3.63;;;2.90;99.90;;;;;;5002228;28;20239;-44
2022/03/15 04:54:30;;;;;;;6.23;3.50;;;3.00;99.90;;;;;;5000705;28;20476;-45
2022/03/15 04:56:58;;;;;;;4.10;3.33;;;2.90;99.90;;;;;;5008272;28;20239;-45
2022/03/15 04:59:25;;;;;;;5.30;3.80;;;3.00;99.90;;;;;;4995427;28;20205;-44
2022/03/15 05:01:51;;;;;;;4.23;3.60;;;3.00;99.90;;;;;;5006430;28;20406;-45
2022/03/15 05:04:18;;;;;;;4.70;3.77;;;2.90;99.90;;;;;;5015645;28;20205;-48
2022/03/15 05:06:45;;;;;;;4.20;3.80;;;2.80;99.90;;;;;;4979617;28;20221;-44
2022/03/15 05:09:12;;;;;;;4.97;3.80;;;2.80;99.90;;;;;;5014044;28;20545;-46
2022/03/15 05:11:44;;;;;;;4.07;3.67;;;2.90;99.90;;;;;;5002412;28;20283;-46
2022/03/15 05:14:12;;;;;;;4.13;3.73;;;2.80;99.90;;;;;;4989401;28;20525;-46
2022/03/15 05:16:39;;;;;;;4.47;3.77;;;2.80;99.90;;;;;;4999913;28;20467;-48
2022/03/15 05:19:06;;;;;;;5.13;4.10;;;2.90;99.90;;;;;;4988407;28;20530;-46
2022/03/15 05:21:33;;;;;;;5.00;4.40;;;3.00;99.90;;;;;;4998647;28;20295;-49
2022/03/15 05:24:00;;;;;;;4.40;4.00;;;3.10;99.90;;;;;;4999875;28;20251;-46
2022/03/15 05:26:27;;;;;;;5.43;4.73;;;3.00;99.90;;;;;;5021828;28;20236;-45
2022/03/15 05:28:54;;;;;;;8.40;4.70;;;3.10;99.90;;;;;;4988392;28;21080;-45
2022/03/15 05:31:23;;;;;;;8.47;5.80;;;3.20;99.90;;;;;;4993681;28;20283;-45
2022/03/15 05:33:50;;;;;;;9.00;6.40;;;3.40;99.90;;;;;;5015840;28;20267;-45
2022/03/15 05:36:19;;;;;;;12.43;7.60;;;3.50;99.90;;;;;;5001982;28;20233;-45
2022/03/15 05:38:46;;;;;;;10.07;7.00;;;3.60;99.90;;;;;;4986657;28;20533;-46
2022/03/15 05:41:13;;;;;;;11.10;7.10;;;3.60;99.90;;;;;;5014516;28;20209;-45
2022/03/15 05:43:40;;;;;;;11.93;7.20;;;3.60;99.90;;;;;;4999183;28;20239;-45
2022/03/15 05:46:07;;;;;;;9.60;6.50;;;3.60;99.90;;;;;;4992382;28;20209;-44
2022/03/15 05:48:35;;;;;;;9.33;6.70;;;3.70;99.90;;;;;;5001736;28;20218;-45
2022/03/15 05:51:02;;;;;;;7.90;6.17;;;3.60;99.90;;;;;;4998620;28;21355;-45
2022/03/15 05:53:29;;;;;;;11.03;6.13;;;3.70;99.90;;;;;;5009320;28;20605;-45
2022/03/15 05:55:56;;;;;;;11.00;6.67;;;3.60;99.90;;;;;;4993228;28;21123;-45
2022/03/15 05:58:23;;;;;;;9.73;6.97;;;3.70;99.90;;;;;;5005629;28;21430;-45
2022/03/15 06:00:51;;;;;;;9.63;6.50;;;3.60;99.90;;;;;;5001041;28;20208;-45
2022/03/15 06:03:18;;;;;;;11.43;7.33;;;3.50;99.90;;;;;;4992919;28;20234;-45
2022/03/15 06:05:46;;;;;;;11.60;6.93;;;3.50;99.90;;;;;;4995967;28;20210;-45
2022/03/15 06:08:13;;;;;;;15.27;7.83;;;3.60;99.90;;;;;;4988579;28;20614;-45
2022/03/15 06:10:42;;;;;;;11.53;6.93;;;3.60;99.90;;;;;;4987516;28;20238;-45
2022/03/15 06:13:09;;;;;;;10.30;7.00;;;3.60;99.90;;;;;;5005136;28;20238;-45
2022/03/15 06:15:36;;;;;;;11.93;7.00;;;3.70;99.90;;;;;;5000318;28;20296;-45
2022/03/15 06:18:05;;;;;;;12.37;7.70;;;3.70;99.90;;;;;;4989731;28;20418;-45
2022/03/15 06:20:32;;;;;;;11.90;7.70;;;3.70;99.90;;;;;;5011391;28;20211;-46
2022/03/15 06:23:02;;;;;;;15.30;8.00;;;3.80;99.90;;;;;;4993156;28;20236;-46
2022/03/15 06:25:30;;;;;;;10.53;7.67;;;3.70;99.90;;;;;;5006804;28;20474;-47
2022/03/15 06:27:57;;;;;;;11.13;7.93;;;3.80;99.90;;;;;;4992177;28;20217;-45
2022/03/15 06:30:24;;;;;;;11.23;7.50;;;3.90;99.90;;;;;;4998974;28;20239;-45
2022/03/15 06:32:50;;;;;;;12.50;7.80;;;3.80;99.90;;;;;;4999956;28;20657;-45
2022/03/15 06:35:19;;;;;;;13.83;8.47;;;3.90;99.90;;;;;;5016821;28;20751;-45
2022/03/15 06:37:48;;;;;;;13.60;8.33;;;4.00;99.90;;;;;;5008393;28;20210;-46
2022/03/15 06:40:22;;;;;;;12.70;8.47;;;3.90;99.90;;;;;;4989213;28;20372;-45
2022/03/15 06:42:50;;;;;;;11.00;7.70;;;3.90;99.90;;;;;;4995550;28;20349;-45
2022/03/15 06:45:17;;;;;;;12.17;8.23;;;4.00;99.90;;;;;;5007284;28;20254;-45
2022/03/15 06:47:44;;;;;;;13.97;8.43;;;4.10;99.90;;;;;;5001800;28;20252;-49
2022/03/15 06:50:12;;;;;;;15.40;8.53;;;4.50;99.90;;;;;;5000592;28;20616;-43
2022/03/15 06:52:39;;;;;;;16.03;8.27;;;4.80;99.90;;;;;;5007612;28;20548;-48
2022/03/15 06:55:07;;;;;;;13.20;7.97;;;4.60;99.90;;;;;;4989334;28;20495;-47
2022/03/15 06:57:36;;;;;;;11.50;7.40;;;4.60;99.90;;;;;;4985693;28;20212;-49
2022/03/15 07:00:04;;;;;;;10.70;7.13;;;4.60;99.90;;;;;;5006043;28;20246;-46
2022/03/15 07:02:31;;;;;;;13.40;8.10;;;4.60;99.90;;;;;;5013020;28;20226;-48
2022/03/15 07:04:58;;;;;;;15.37;9.07;;;4.60;99.90;;;;;;4996862;28;20615;-48
2022/03/15 07:07:25;;;;;;;18.57;9.60;;;4.70;99.90;;;;;;5011156;28;20230;-44
2022/03/15 07:09:53;;;;;;;12.50;8.87;;;4.70;99.90;;;;;;4984264;28;20881;-46
2022/03/15 07:12:20;;;;;;;12.57;9.17;;;4.80;99.90;;;;;;4986332;28;20303;-46
2022/03/15 07:14:49;;;;;;;16.00;8.97;;;4.90;99.90;;;;;;5011742;28;20706;-47
2022/03/15 07:17:16;;;;;;;19.83;9.70;;;4.90;99.90;;;;;;5016936;28;20284;-46
2022/03/15 07:19:44;;;;;;;13.20;8.80;;;4.90;99.90;;;;;;5002948;28;20198;-50
2022/03/15 07:22:11;;;;;;;15.80;9.80;;;4.90;99.90;;;;;;5014484;28;20411;-47
2022/03/15 07:24:38;;;;;;;13.60;9.47;;;4.90;99.90;;;;;;5002499;28;20283;-46
2022/03/15 07:27:05;;;;;;;15.90;9.03;;;5.00;99.90;;;;;;4979232;28;20218;-51
2022/03/15 07:29:32;;;;;;;14.40;10.00;;;5.00;99.90;;;;;;5015341;28;20285;-48
2022/03/15 07:32:00;;;;;;;16.33;9.33;;;5.00;99.90;;;;;;5011251;28;20284;-48
2022/03/15 07:34:27;;;;;;;17.33;10.70;;;5.20;99.90;;;;;;5014107;28;20731;-49
2022/03/15 07:36:54;;;;;;;17.17;10.13;;;5.10;99.90;;;;;;5001480;28;20230;-49
2022/03/15 07:39:20;;;;;;;18.33;10.30;;;5.10;99.90;;;;;;5013428;28;20416;-43
2022/03/15 07:41:47;;;;;;;16.87;10.77;;;5.20;99.90;;;;;;4991408;28;20220;-49
2022/03/15 07:44:14;;;;;;;14.77;9.50;;;5.20;99.90;;;;;;4998876;28;20328;-43
2022/03/15 07:46:48;;;;;;;21.60;11.57;;;5.30;99.90;;;;;;5012252;28;20222;-44
2022/03/15 07:49:17;;;;;;;16.93;10.87;;;5.30;99.90;;;;;;5001768;28;20202;-48
2022/03/15 07:51:44;;;;;;;20.83;11.37;;;5.40;99.90;;;;;;5004304;28;20585;-44
2022/03/15 07:54:11;;;;;;;19.80;11.73;;;5.50;99.90;;;;;;5014318;28;20301;-47
2022/03/15 07:56:38;;;;;;;21.87;13.03;;;5.50;99.90;;;;;;4994191;28;20230;-48
2022/03/15 07:59:05;;;;;;;21.57;12.93;;;5.60;99.90;;;;;;4989577;28;20276;-46
2022/03/15 08:01:32;;;;;;;24.50;12.57;;;5.70;99.90;;;;;;5010553;28;20319;-47
2022/03/15 08:03:59;;;;;;;21.80;13.77;;;5.70;99.90;;;;;;5003413;28;20253;-46
2022/03/15 08:06:29;;;;;;;20.23;13.97;;;5.80;99.90;;;;;;5007458;28;20262;-47
2022/03/15 08:08:58;;;;;;;27.17;13.57;;;5.90;99.90;;;;;;5008620;28;20525;-46
2022/03/15 08:11:26;;;;;;;20.73;13.37;;;5.90;99.90;;;;;;5013615;28;20210;-45
2022/03/15 08:13:54;;;;;;;22.07;12.70;;;6.00;99.90;;;;;;4979188;28;20231;-46
2022/03/15 08:16:22;;;;;;;26.07;12.83;;;6.00;99.90;;;;;;5013552;28;20246;-46
2022/03/15 08:18:49;;;;;;;26.13;12.97;;;6.10;99.90;;;;;;5003128;28;20207;-46
2022/03/15 08:21:16;;;;;;;21.50;13.13;;;6.10;99.90;;;;;;5013517;28;20217;-45
2022/03/15 08:23:45;;;;;;;20.80;13.37;;;6.10;99.90;;;;;;5001151;28;20230;-46
2022/03/15 08:26:12;;;;;;;22.37;13.67;;;6.20;99.90;;;;;;5014035;28;20199;-46
2022/03/15 08:28:39;;;;;;;20.07;12.97;;;6.20;99.90;;;;;;4992330;28;20243;-46
2022/03/15 08:31:06;;;;;;;23.17;13.97;;;6.30;99.90;;;;;;4997421;28;20729;-45
2022/03/15 08:33:34;;;;;;;25.33;14.13;;;6.30;99.90;;;;;;5016394;28;20771;-46
2022/03/15 08:36:00;;;;;;;24.77;13.93;;;6.40;99.90;;;;;;5004429;28;20437;-46
2022/03/15 08:38:28;;;;;;;21.40;13.90;;;6.40;99.90;;;;;;5006441;28;20235;-45
2022/03/15 08:40:57;;;;;;;20.87;14.17;;;6.50;99.90;;;;;;5012832;28;20664;-46
2022/03/15 08:43:24;;;;;;;23.57;15.23;;;6.50;99.90;;;;;;5019702;28;22584;-47
2022/03/15 08:45:51;;;;;;;29.27;15.33;;;6.60;99.90;;;;;;4996174;28;20218;-45
2022/03/15 08:48:18;;;;;;;28.73;16.33;;;6.60;99.90;;;;;;5019416;28;20226;-46
2022/03/15 08:50:46;;;;;;;24.30;14.97;;;6.70;99.90;;;;;;5009060;28;20220;-45
2022/03/15 08:53:13;;;;;;;28.20;15.67;;;6.70;99.90;;;;;;5021348;28;20270;-47
2022/03/15 08:55:40;;;;;;;27.83;14.57;;;6.70;99.90;;;;;;5004452;28;20228;-47
2022/03/15 08:58:08;;;;;;;25.47;15.13;;;6.70;99.90;;;;;;5019133;28;20266;-47
2022/03/15 09:00:35;;;;;;;24.57;14.63;;;6.80;99.90;;;;;;4996893;28;20214;-47
2022/03/15 09:03:02;;;;;;;26.53;15.93;;;6.80;99.90;;;;;;5015779;28;20336;-46
2022/03/15 09:05:29;;;;;;;28.40;15.87;;;6.90;99.90;;;;;;5006304;28;20271;-47
2022/03/15 09:07:57;;;;;;;26.70;16.33;;;6.90;99.90;;;;;;5011971;28;20274;-45
2022/03/15 09:10:25;;;;;;;28.83;15.73;;;6.90;99.90;;;;;;5008555;28;20212;-48
2022/03/15 09:12:53;;;;;;;30.73;16.63;;;7.00;99.90;;;;;;5014231;28;20313;-49
2022/03/15 09:15:22;;;;;;;30.73;16.60;;;7.00;99.90;;;;;;4999534;28;20473;-46
2022/03/15 09:17:49;;;;;;;26.63;17.00;;;7.10;99.90;;;;;;5014909;28;20216;-49
2022/03/15 09:20:17;;;;;;;26.23;16.30;;;7.10;99.90;;;;;;5011426;28;20227;-47
2022/03/15 09:22:44;;;;;;;26.60;16.50;;;7.20;99.90;;;;;;5010123;28;20434;-46
2022/03/15 09:25:11;;;;;;;30.63;18.97;;;7.20;99.90;;;;;;5016596;28;20234;-46
2022/03/15 09:27:38;;;;;;;29.30;16.87;;;7.30;99.90;;;;;;5002855;28;20205;-45
2022/03/15 09:30:06;;;;;;;32.13;17.30;;;7.30;99.90;;;;;;5018549;28;20581;-46
2022/03/15 09:32:35;;;;;;;27.73;17.37;;;7.30;99.90;;;;;;4996468;28;20461;-48
2022/03/15 09:35:01;;;;;;;29.20;18.63;;;7.30;99.90;;;;;;5015102;28;20209;-48
2022/03/15 09:37:29;;;;;;;27.80;18.13;;;7.40;99.90;;;;;;5019245;28;20235;-45
2022/03/15 09:39:57;;;;;;;31.07;17.80;;;7.40;99.90;;;;;;5013809;28;20280;-48
2022/03/15 09:42:25;;;;;;;26.80;17.83;;;7.50;99.90;;;;;;5004383;28;20233;-44
2022/03/15 09:44:53;;;;;;;26.03;17.17;;;7.50;99.90;;;;;;5019759;28;20202;-45
2022/03/15 09:47:26;;;;;;;33.27;19.37;;;7.50;99.90;;;;;;5002597;28;20232;-45
2022/03/15 09:49:55;;;;;;;31.57;18.03;;;7.60;99.90;;;;;;5018479;28;20308;-47
2022/03/15 09:52:22;;;;;;;31.30;18.47;;;7.60;99.90;;;;;;5018973;28;20233;-48
2022/03/15 09:54:49;;;;;;;30.00;18.17;;;7.60;99.90;;;;;;5009341;28;20407;-50
2022/03/15 09:57:16;;;;;;;30.53;18.47;;;7.70;99.90;;;;;;5000730;28;20304;-46
2022/03/15 09:59:43;;;;;;;31.17;19.10;;;7.80;99.90;;;;;;5015802;28;20234;-50
2022/03/15 10:02:10;;;;;;;36.13;20.03;;;7.80;99.90;;;;;;4996472;28;20863;-46
2022/03/15 10:04:38;;;;;;;32.63;20.40;;;7.90;99.90;;;;;;5020530;28;20248;-46
2022/03/15 10:07:08;;;;;;;33.63;20.53;;;8.00;99.90;;;;;;5020043;28;20232;-45
2022/03/15 10:09:35;;;;;;;34.50;21.53;;;8.20;99.90;;;;;;5021333;28;20505;-48
2022/03/15 10:12:02;;;;;;;35.30;20.87;;;8.20;99.90;;;;;;5007398;28;20317;-48
2022/03/15 10:14:40;;;;;;;30.47;19.43;;;8.20;99.90;;;;;;5006768;28;20414;-46
2022/03/15 10:17:07;;;;;;;33.87;21.83;;;8.20;99.90;;;;;;4994087;28;20223;-46
2022/03/15 10:19:35;;;;;;;35.63;21.57;;;8.30;99.90;;;;;;5015697;28;20286;-47
2022/03/15 10:22:04;;;;;;;42.23;23.17;;;8.40;99.90;;;;;;5007795;28;20217;-47
2022/03/15 10:24:32;;;;;;;40.47;21.63;;;8.50;99.90;;;;;;4994938;28;20209;-49
2022/03/15 10:27:02;;;;;;;38.00;23.03;;;8.50;99.90;;;;;;5017824;28;20225;-49
2022/03/15 10:29:30;;;;;;;34.80;22.23;;;8.50;99.90;;;;;;4997491;28;20217;-48
2022/03/15 10:31:57;;;;;;;36.77;21.73;;;8.50;99.90;;;;;;5013691;28;20281;-47
2022/03/15 10:34:28;;;;;;;34.33;20.73;;;8.50;99.90;;;;;;4997209;28;20521;-49
2022/03/15 10:36:56;;;;;;;36.40;20.70;;;8.50;99.90;;;;;;5015172;28;20215;-46
2022/03/15 10:39:24;;;;;;;32.50;22.17;;;8.50;99.90;;;;;;5016582;28;20207;-45
2022/03/15 10:41:55;;;;;;;39.90;22.03;;;8.60;99.90;;;;;;5002877;28;20209;-47
2022/03/15 10:44:24;;;;;;;36.27;22.47;;;8.70;99.90;;;;;;5009178;28;20281;-45
2022/03/15 10:47:07;;;;;;;36.17;21.07;;;8.60;99.90;;;;;;5013289;28;20213;-46
2022/03/15 10:49:47;;;;;;;30.00;19.60;;;8.70;99.90;;;;;;4982699;28;20292;-45
2022/03/15 10:52:14;;;;;;;33.20;21.57;;;8.70;99.90;;;;;;5011814;28;20229;-47
2022/03/15 10:54:42;;;;;;;36.50;23.13;;;8.70;99.90;;;;;;5007265;28;20198;-47
2022/03/15 10:57:10;;;;;;;36.73;22.80;;;8.80;99.90;;;;;;5001864;28;20249;-46
2022/03/15 10:59:41;;;;;;;42.03;23.13;;;8.90;99.90;;;;;;4999889;28;20569;-47
2022/03/15 11:02:12;;;;;;;40.83;23.57;;;9.00;99.90;;;;;;5019639;28;20261;-46
2022/03/15 11:04:47;;;;;;;41.30;23.67;;;9.00;99.90;;;;;;4989061;28;20218;-46
2022/03/15 11:07:14;;;;;;;37.70;22.23;;;9.10;99.90;;;;;;4995641;28;20195;-46
2022/03/15 11:09:42;;;;;;;36.70;23.90;;;9.00;99.90;;;;;;5020598;28;20514;-46
2022/03/15 11:12:11;;;;;;;38.47;24.10;;;9.10;99.90;;;;;;4997889;28;20225;-46
2022/03/15 11:14:39;;;;;;;42.77;23.53;;;9.10;99.90;;;;;;5001742;28;20317;-47
2022/03/15 11:17:12;;;;;;;43.80;23.67;;;9.10;99.90;;;;;;4997138;28;20229;-46
2022/03/15 11:19:44;;;;;;;42.10;23.17;;;9.10;99.90;;;;;;4992126;28;20220;-47
2022/03/15 11:22:13;;;;;;;39.00;22.40;;;9.10;99.90;;;;;;5016903;28;20228;-46
2022/03/15 11:24:44;;;;;;;35.63;22.60;;;9.10;99.90;;;;;;5009514;28;20548;-45
2022/03/15 11:27:17;;;;;;;40.20;22.50;;;9.10;99.90;;;;;;5011878;28;20281;-45
2022/03/15 11:29:46;;;;;;;39.13;22.53;;;9.20;99.90;;;;;;5015894;28;20214;-48
2022/03/15 11:32:14;;;;;;;36.47;22.70;;;9.20;99.90;;;;;;4996602;28;20323;-45
2022/03/15 11:34:43;;;;;;;35.80;22.67;;;9.30;99.90;;;;;;5015818;28;20206;-47
2022/03/15 11:37:11;;;;;;;37.60;22.50;;;9.20;99.90;;;;;;4973925;28;20222;-47
2022/03/15 11:39:39;;;;;;;35.13;22.67;;;9.30;99.90;;;;;;5019075;28;20311;-44
2022/03/15 11:42:09;;;;;;;39.80;23.00;;;9.30;99.90;;;;;;4994384;28;20249;-49
2022/03/15 11:44:53;;;;;;;41.60;22.77;;;9.30;99.90;;;;;;5016850;28;21423;-43
2022/03/15 11:47:38;;;;;;;36.90;22.27;;;9.40;99.90;;;;;;4995032;28;20391;-47
2022/03/15 11:50:15;;;;;;;35.90;22.40;;;9.40;99.90;;;;;;5002842;28;24647;-47
2022/03/15 11:52:52;;;;;;;37.97;22.00;;;9.40;99.90;;;;;;4997515;28;20230;-48
2022/03/15 11:55:34;;;;;;;41.30;22.93;;;9.40;99.90;;;;;;4998414;28;20640;-46
2022/03/15 11:58:05;;;;;;;42.57;23.20;;;9.40;99.90;;;;;;5001413;28;20301;-47
2022/03/15 12:00:40;;;;;;;40.17;22.00;;;9.50;99.90;;;;;;5020107;28;20820;-46
2022/03/15 12:03:07;;;;;;;32.47;20.33;;;9.50;99.90;;;;;;5001797;28;20602;-45
2022/03/15 12:05:44;;;;;;;35.80;21.53;;;9.60;99.90;;;;;;5019618;28;20213;-46
2022/03/15 12:08:13;;;;;;;33.03;22.23;;;9.50;99.90;;;;;;4993444;28;20399;-46
2022/03/15 12:10:44;;;;;;;35.60;22.10;;;9.60;99.90;;;;;;5017199;28;20206;-46
2022/03/15 12:13:13;;;;;;;39.17;21.30;;;9.60;99.90;;;;;;5004362;28;20227;-55
2022/03/15 12:15:43;;;;;;;38.73;21.93;;;9.60;99.90;;;;;;4998821;28;20281;-46
2022/03/15 12:18:23;;;;;;;35.77;21.93;;;9.70;99.90;;;;;;4999582;28;20305;-47
2022/03/15 12:20:59;;;;;;;34.60;20.90;;;9.70;99.90;;;;;;4996877;28;20509;-47
2022/03/15 12:23:28;;;;;;;31.27;21.47;;;9.70;99.90;;;;;;4991918;28;20249;-44
2022/03/15 12:25:57;;;;;;;42.43;23.00;;;9.60;99.90;;;;;;5011135;28;20206;-50
2022/03/15 12:28:29;;;;;;;33.93;20.93;;;9.70;99.90;;;;;;4989682;28;20198;-49
2022/03/15 12:31:06;;;;;;;34.43;21.50;;;9.70;99.90;;;;;;5005333;28;20522;-49
2022/03/15 12:33:34;;;;;;;33.57;20.43;;;9.70;99.90;;;;;;4989318;28;20488;-47
2022/03/15 12:36:06;;;;;;;32.20;21.00;;;9.70;99.90;;;;;;5001368;28;20211;-46
2022/03/15 12:38:35;;;;;;;37.63;21.93;;;9.70;99.90;;;;;;4988596;28;20236;-46
2022/03/15 12:41:04;;;;;;;40.13;22.40;;;9.80;99.90;;;;;;5008400;28;20534;-46
2022/03/15 12:43:31;;;;;;;31.87;21.63;;;9.80;99.90;;;;;;4987077;28;21262;-47
2022/03/15 12:46:05;;;;;;;36.50;21.67;;;9.80;99.90;;;;;;4999600;28;20207;-46
2022/03/15 12:48:34;;;;;;;37.80;22.53;;;9.90;99.90;;;;;;5000046;28;20999;-46
2022/03/15 12:51:02;;;;;;;37.13;22.07;;;9.90;99.90;;;;;;5003727;28;20214;-46
2022/03/15 12:53:36;;;;;;;41.83;23.33;;;10.00;99.90;;;;;;4988633;28;20234;-46